createdAt,value
2022-10-13T00:00:33.582Z,90.46
2022-10-13T00:02:50.489Z,90.86
2022-10-13T00:05:07.339Z,90.61
2022-10-13T00:07:24.261Z,91.18
2022-10-13T00:09:41.116Z,90.92
2022-10-13T00:11:58.047Z,90.91
2022-10-13T00:14:14.921Z,90.15
2022-10-13T00:16:31.807Z,89.93
2022-10-13T00:18:48.679Z,91.05
2022-10-13T00:21:05.521Z,90.81
2022-10-13T00:23:22.425Z,91.17
2022-10-13T00:25:39.278Z,90.04
2022-10-13T00:27:56.200Z,90.62
2022-10-13T00:30:13.073Z,90.36
2022-10-13T00:32:29.947Z,90.70
2022-10-13T00:34:46.847Z,90.72
2022-10-13T00:37:03.729Z,89.88
2022-10-13T00:39:20.576Z,90.57
2022-10-13T00:41:37.489Z,90.94
2022-10-13T00:43:54.379Z,89.95
2022-10-13T00:46:11.255Z,90.34
2022-10-13T00:48:28.120Z,90.09
2022-10-13T00:50:45.003Z,89.50
2022-10-13T00:53:01.846Z,90.39
2022-10-13T00:55:18.686Z,89.51
2022-10-13T00:57:35.564Z,89.92
2022-10-13T00:59:52.411Z,88.92
2022-10-13T01:02:09.293Z,87.95
2022-10-13T01:04:26.220Z,88.63
2022-10-13T01:06:43.163Z,89.39
2022-10-13T01:09:00.020Z,89.77
2022-10-13T01:11:16.913Z,88.52
2022-10-13T01:13:33.786Z,88.98
2022-10-13T01:15:50.725Z,89.50
2022-10-13T01:18:07.636Z,90.53
2022-10-13T01:20:24.545Z,90.18
2022-10-13T01:22:41.409Z,89.47
2022-10-13T01:24:58.229Z,89.25
2022-10-13T01:27:15.293Z,89.40
2022-10-13T01:29:32.194Z,90.02
2022-10-13T01:31:49.054Z,89.15
2022-10-13T01:34:05.914Z,88.65
2022-10-13T01:36:22.808Z,88.82
2022-10-13T01:38:39.707Z,89.01
2022-10-13T01:40:56.611Z,90.03
2022-10-13T01:43:13.513Z,90.00
2022-10-13T01:45:30.438Z,88.32
2022-10-13T01:47:47.354Z,89.15
2022-10-13T01:50:04.198Z,89.13
2022-10-13T01:52:21.454Z,88.91
2022-10-13T01:54:38.489Z,88.71
2022-10-13T01:56:55.311Z,89.59
2022-10-13T01:59:12.220Z,89.04
2022-10-13T02:01:29.055Z,88.91
2022-10-13T02:03:45.904Z,88.41
2022-10-13T02:06:02.811Z,88.68
2022-10-13T02:08:19.638Z,89.39
2022-10-13T02:10:36.637Z,89.40
2022-10-13T02:12:53.752Z,89.06
2022-10-13T02:15:10.764Z,89.19
2022-10-13T02:17:27.611Z,88.17
2022-10-13T02:19:44.516Z,87.89
2022-10-13T02:22:01.500Z,88.90
2022-10-13T02:24:18.334Z,88.78
2022-10-13T02:26:35.234Z,88.48
2022-10-13T02:28:52.178Z,89.46
2022-10-13T02:31:09.033Z,88.88
2022-10-13T02:33:25.868Z,88.91
2022-10-13T02:35:42.749Z,88.38
2022-10-13T02:37:59.631Z,89.27
2022-10-13T02:40:16.480Z,88.97
2022-10-13T02:42:33.351Z,88.98
2022-10-13T02:44:50.313Z,88.99
2022-10-13T02:47:07.316Z,89.32
2022-10-13T02:49:24.234Z,89.26
2022-10-13T02:51:41.130Z,89.65
2022-10-13T02:53:57.952Z,89.76
2022-10-13T02:56:14.837Z,89.22
2022-10-13T02:58:31.738Z,89.10
2022-10-13T03:00:48.648Z,88.86
2022-10-13T03:03:05.585Z,89.32
2022-10-13T03:05:22.430Z,89.23
2022-10-13T03:07:39.250Z,89.27
2022-10-13T03:09:56.116Z,89.09
2022-10-13T03:12:12.969Z,89.19
2022-10-13T03:14:29.858Z,89.62
2022-10-13T03:16:46.777Z,89.48
2022-10-13T03:19:03.598Z,88.57
2022-10-13T03:21:20.429Z,88.43
2022-10-13T03:23:37.339Z,88.08
2022-10-13T03:25:54.155Z,88.81
2022-10-13T03:28:11.083Z,88.43
2022-10-13T03:30:27.985Z,89.21
2022-10-13T03:32:44.794Z,89.55
2022-10-13T03:35:01.602Z,89.15
2022-10-13T03:37:18.473Z,89.34
2022-10-13T03:39:35.280Z,89.34
2022-10-13T03:41:52.155Z,89.27
2022-10-13T03:44:09.034Z,88.98
2022-10-13T03:46:25.899Z,89.53
2022-10-13T03:48:42.793Z,89.30
2022-10-13T03:50:59.655Z,90.08
2022-10-13T03:53:16.456Z,89.58
2022-10-13T03:55:33.321Z,89.71
2022-10-13T03:57:50.151Z,89.52
2022-10-13T04:00:06.982Z,90.62
2022-10-13T04:02:23.846Z,89.96
2022-10-13T04:04:40.652Z,90.50
2022-10-13T04:06:57.539Z,90.52
2022-10-13T04:09:14.375Z,90.34
2022-10-13T04:11:31.233Z,90.36
2022-10-13T04:13:48.063Z,90.20
2022-10-13T04:16:04.955Z,89.59
2022-10-13T04:18:21.847Z,89.75
2022-10-13T04:20:38.685Z,89.17
2022-10-13T04:22:55.534Z,89.27
2022-10-13T04:25:12.390Z,89.74
2022-10-13T04:27:29.228Z,90.14
2022-10-13T04:29:46.094Z,90.06
2022-10-13T04:32:02.902Z,89.37
2022-10-13T04:34:19.779Z,89.61
2022-10-13T04:36:36.638Z,89.26
2022-10-13T04:38:53.535Z,89.79
2022-10-13T04:41:10.550Z,89.80
2022-10-13T04:43:27.534Z,89.85
2022-10-13T04:45:44.386Z,89.58
2022-10-13T04:48:01.247Z,90.11
2022-10-13T04:50:18.076Z,90.00
2022-10-13T04:52:34.947Z,89.87
2022-10-13T04:54:51.768Z,89.95
2022-10-13T04:57:08.613Z,90.21
2022-10-13T04:59:25.437Z,90.08
2022-10-13T05:01:42.284Z,89.60
2022-10-13T05:03:59.093Z,89.38
2022-10-13T05:06:15.947Z,89.48
2022-10-13T05:08:32.890Z,89.59
2022-10-13T05:10:49.838Z,89.83
2022-10-13T05:13:06.707Z,89.79
2022-10-13T05:15:23.530Z,89.97
2022-10-13T05:17:40.390Z,90.05
2022-10-13T05:19:57.273Z,90.28
2022-10-13T05:22:14.103Z,89.34
2022-10-13T05:24:31.108Z,90.36
2022-10-13T05:26:48.026Z,89.73
2022-10-13T05:29:04.898Z,90.36
2022-10-13T05:31:21.732Z,89.64
2022-10-13T05:33:38.543Z,89.90
2022-10-13T05:35:55.396Z,90.05
2022-10-13T05:38:12.352Z,90.47
2022-10-13T05:40:29.208Z,90.31
2022-10-13T05:42:46.054Z,89.67
2022-10-13T05:45:02.944Z,89.46
2022-10-13T05:47:19.774Z,90.21
2022-10-13T05:49:36.633Z,90.10
2022-10-13T05:51:53.475Z,90.02
2022-10-13T05:54:10.514Z,89.32
2022-10-13T05:56:27.394Z,90.31
2022-10-13T05:58:44.251Z,89.60
2022-10-13T06:01:01.205Z,89.93
2022-10-13T06:03:18.015Z,89.63
2022-10-13T06:05:34.876Z,89.46
2022-10-13T06:07:51.702Z,90.19
2022-10-13T06:10:08.547Z,89.86
2022-10-13T06:12:25.356Z,89.61
2022-10-13T06:14:42.217Z,89.99
2022-10-13T06:16:59.034Z,89.13
2022-10-13T06:19:15.889Z,89.94
2022-10-13T06:21:32.712Z,89.96
2022-10-13T06:23:49.573Z,90.03
2022-10-13T06:26:06.412Z,90.01
2022-10-13T06:28:23.319Z,90.16
2022-10-13T06:30:40.348Z,89.48
2022-10-13T06:32:57.215Z,89.89
2022-10-13T06:35:14.077Z,90.49
2022-10-13T06:37:30.903Z,90.69
2022-10-13T06:39:47.757Z,89.91
2022-10-13T06:42:04.626Z,90.31
2022-10-13T06:44:21.481Z,89.72
2022-10-13T06:46:38.360Z,89.86
2022-10-13T06:48:55.257Z,89.75
2022-10-13T06:51:12.302Z,89.16
2022-10-13T06:53:29.168Z,89.81
2022-10-13T06:55:50.174Z,89.95
2022-10-13T06:58:09.117Z,89.83
2022-10-13T07:00:25.989Z,89.61
2022-10-13T07:02:42.851Z,89.47
2022-10-13T07:04:59.741Z,89.71
2022-10-13T07:07:16.725Z,90.09
2022-10-13T07:09:33.612Z,91.21
2022-10-13T07:11:50.468Z,90.79
2022-10-13T07:14:07.330Z,91.07
2022-10-13T07:16:24.165Z,90.76
2022-10-13T07:18:41.018Z,90.01
2022-10-13T07:20:57.849Z,90.65
2022-10-13T07:23:14.709Z,91.09
2022-10-13T07:25:31.582Z,90.83
2022-10-13T07:27:48.476Z,90.45
2022-10-13T07:30:05.294Z,89.30
2022-10-13T07:32:22.140Z,90.58
2022-10-13T07:34:39.017Z,89.90
2022-10-13T07:36:55.850Z,89.95
2022-10-13T07:39:12.735Z,89.82
2022-10-13T07:41:29.638Z,89.32
2022-10-13T07:43:46.468Z,89.90
2022-10-13T07:46:03.323Z,89.86
2022-10-13T07:48:20.164Z,89.16
2022-10-13T07:50:37.067Z,89.73
2022-10-13T07:52:53.889Z,89.41
2022-10-13T07:55:10.774Z,89.89
2022-10-13T07:57:27.616Z,88.59
2022-10-13T07:59:44.469Z,89.79
2022-10-13T08:02:01.370Z,88.22
2022-10-13T08:04:18.243Z,87.73
2022-10-13T08:06:35.256Z,89.35
2022-10-13T08:08:52.152Z,88.69
2022-10-13T08:11:09.495Z,88.53
2022-10-13T08:13:26.838Z,89.23
2022-10-13T08:15:43.718Z,87.95
2022-10-13T08:18:00.616Z,88.24
2022-10-13T08:20:17.497Z,88.32
2022-10-13T08:22:34.426Z,89.15
2022-10-13T08:24:51.252Z,87.79
2022-10-13T08:27:08.146Z,88.79
2022-10-13T08:29:25.120Z,87.68
2022-10-13T08:31:42.215Z,88.08
2022-10-13T08:33:59.125Z,88.10
2022-10-13T08:36:19.009Z,88.00
2022-10-13T08:38:35.855Z,88.43
2022-10-13T08:40:52.753Z,88.18
2022-10-13T08:43:09.578Z,87.51
2022-10-13T08:45:40.987Z,87.82
2022-10-13T08:47:58.775Z,88.64
2022-10-13T08:50:15.675Z,88.70
2022-10-13T08:52:32.508Z,88.22
2022-10-13T08:54:49.369Z,87.56
2022-10-13T08:57:06.182Z,87.53
2022-10-13T08:59:23.185Z,88.14
2022-10-13T09:01:40.245Z,86.98
2022-10-13T09:03:57.155Z,86.76
2022-10-13T09:06:14.029Z,86.55
2022-10-13T09:08:30.865Z,85.57
2022-10-13T09:10:47.731Z,85.33
2022-10-13T09:13:04.581Z,86.21
2022-10-13T09:15:21.635Z,86.80
2022-10-13T09:17:38.480Z,86.52
2022-10-13T09:19:55.373Z,86.15
2022-10-13T09:22:12.213Z,86.10
2022-10-13T09:24:29.093Z,85.31
2022-10-13T09:26:45.929Z,85.78
2022-10-13T09:29:02.827Z,84.70
2022-10-13T09:31:19.721Z,84.62
2022-10-13T09:33:36.544Z,84.40
2022-10-13T09:35:53.379Z,82.60
2022-10-13T09:38:10.264Z,82.87
2022-10-13T09:40:27.159Z,81.37
2022-10-13T09:42:44.160Z,83.27
2022-10-13T09:45:01.059Z,82.67
2022-10-13T09:47:17.915Z,82.52
2022-10-13T09:49:34.818Z,83.08
2022-10-13T09:51:51.646Z,82.83
2022-10-13T09:54:08.494Z,82.42
2022-10-13T09:56:25.365Z,80.77
2022-10-13T09:58:42.280Z,82.59
2022-10-13T10:00:59.169Z,82.46
2022-10-13T10:03:16.093Z,81.14
2022-10-13T10:05:33.108Z,82.04
2022-10-13T10:07:49.946Z,82.80
2022-10-13T10:10:06.843Z,82.23
2022-10-13T10:12:27.800Z,83.51
2022-10-13T10:14:44.903Z,82.87
2022-10-13T10:17:01.776Z,81.94
2022-10-13T10:19:18.635Z,81.31
2022-10-13T10:21:35.503Z,83.21
2022-10-13T10:23:52.381Z,81.99
2022-10-13T10:26:09.250Z,81.41
2022-10-13T10:28:26.156Z,81.18
2022-10-13T10:30:43.066Z,82.53
2022-10-13T10:32:59.874Z,82.76
2022-10-13T10:35:16.789Z,80.94
2022-10-13T10:37:33.635Z,80.34
2022-10-13T10:39:50.506Z,81.76
2022-10-13T10:42:07.330Z,80.37
2022-10-13T10:44:24.216Z,81.27
2022-10-13T10:46:41.073Z,80.78
2022-10-13T10:48:57.906Z,79.45
2022-10-13T10:51:14.743Z,80.24
2022-10-13T10:53:31.606Z,78.91
2022-10-13T10:55:48.407Z,78.88
2022-10-13T10:58:05.311Z,79.19
2022-10-13T11:00:22.288Z,79.59
2022-10-13T11:02:39.332Z,78.94
2022-10-13T11:04:56.312Z,78.10
2022-10-13T11:07:13.351Z,79.29
2022-10-13T11:09:30.229Z,79.46
2022-10-13T11:11:47.082Z,78.74
2022-10-13T11:14:03.956Z,79.03
2022-10-13T11:16:20.841Z,79.02
2022-10-13T11:18:37.694Z,79.00
2022-10-13T11:20:54.602Z,80.50
2022-10-13T11:23:11.462Z,80.72
2022-10-13T11:25:28.347Z,81.34
2022-10-13T11:27:45.173Z,80.26
2022-10-13T11:30:02.033Z,80.33
2022-10-13T11:32:19.159Z,80.22
2022-10-13T11:34:36.221Z,81.36
2022-10-13T11:36:53.110Z,80.08
2022-10-13T11:39:09.983Z,81.27
2022-10-13T11:41:26.884Z,81.96
2022-10-13T11:43:43.788Z,81.46
2022-10-13T11:46:00.630Z,81.67
2022-10-13T11:48:17.499Z,80.87
2022-10-13T11:50:34.360Z,83.40
2022-10-13T11:52:51.225Z,82.03
2022-10-13T11:55:08.084Z,82.00
2022-10-13T11:57:24.957Z,82.96
2022-10-13T11:59:41.808Z,82.36
2022-10-13T12:01:58.735Z,82.40
2022-10-13T12:04:15.642Z,81.17
2022-10-13T12:06:32.543Z,81.84
2022-10-13T12:08:49.424Z,81.12
2022-10-13T12:11:06.257Z,81.97
2022-10-13T12:13:23.160Z,82.97
2022-10-13T12:15:40.035Z,81.43
2022-10-13T12:17:56.981Z,83.11
2022-10-13T12:20:13.846Z,82.09
2022-10-13T12:22:30.722Z,82.33
2022-10-13T12:24:47.569Z,81.09
2022-10-13T12:27:04.471Z,78.96
2022-10-13T12:29:21.363Z,77.69
2022-10-13T12:31:38.230Z,77.61
2022-10-13T12:33:55.098Z,76.99
2022-10-13T12:36:11.921Z,77.79
2022-10-13T12:38:28.842Z,76.26
2022-10-13T12:40:45.717Z,76.21
2022-10-13T12:43:02.643Z,77.12
2022-10-13T12:45:19.463Z,76.51
2022-10-13T12:47:36.338Z,75.55
2022-10-13T12:49:53.204Z,75.40
2022-10-13T12:52:10.230Z,75.02
2022-10-13T12:54:27.083Z,75.11
2022-10-13T12:56:43.960Z,74.39
2022-10-13T12:59:00.824Z,73.74
2022-10-13T13:01:17.747Z,72.64
2022-10-13T13:03:34.600Z,73.37
2022-10-13T13:05:53.609Z,72.20
2022-10-13T13:08:12.112Z,70.55
2022-10-13T13:10:28.942Z,70.58
2022-10-13T13:12:45.821Z,71.26
2022-10-13T13:15:02.672Z,72.52
2022-10-13T13:17:33.045Z,72.66
2022-10-13T13:19:56.329Z,72.74
2022-10-13T13:22:13.170Z,71.83
2022-10-13T13:24:39.782Z,73.62
2022-10-13T13:26:57.360Z,73.79
2022-10-13T13:29:14.226Z,74.18
2022-10-13T13:31:31.103Z,74.39
2022-10-13T13:33:49.216Z,74.85
2022-10-13T13:36:06.085Z,75.44
2022-10-13T13:38:22.914Z,74.92
2022-10-13T13:40:39.789Z,76.15
2022-10-13T13:42:56.635Z,76.12
2022-10-13T13:45:13.512Z,76.03
2022-10-13T13:47:30.399Z,76.89
2022-10-13T13:49:47.242Z,76.80
2022-10-13T13:52:04.151Z,77.04
2022-10-13T13:54:20.990Z,77.64
2022-10-13T13:56:37.803Z,77.13
2022-10-13T13:58:54.660Z,77.73
2022-10-13T14:01:11.469Z,77.54
2022-10-13T14:03:28.365Z,78.15
2022-10-13T14:05:45.225Z,79.20
2022-10-13T14:08:02.041Z,78.99
2022-10-13T14:10:18.908Z,79.85
2022-10-13T14:12:35.743Z,79.25
2022-10-13T14:14:52.603Z,79.80
2022-10-13T14:17:09.446Z,80.03
2022-10-13T14:19:26.307Z,80.22
2022-10-13T14:21:43.212Z,80.66
2022-10-13T14:24:00.118Z,81.02
2022-10-13T14:26:16.982Z,80.78
2022-10-13T14:28:33.831Z,80.54
2022-10-13T14:30:50.702Z,81.04
2022-10-13T14:33:07.547Z,81.36
2022-10-13T14:35:24.425Z,81.88
2022-10-13T14:37:41.250Z,81.71
2022-10-13T14:39:58.102Z,82.49
2022-10-13T14:42:15.073Z,81.91
2022-10-13T14:44:31.939Z,82.11
2022-10-13T14:46:48.760Z,82.16
2022-10-13T14:49:05.686Z,81.90
2022-10-13T14:51:22.552Z,82.77
2022-10-13T14:53:39.440Z,82.66
2022-10-13T14:55:56.325Z,82.79
2022-10-13T14:58:13.203Z,83.14
2022-10-13T15:00:30.025Z,83.15
2022-10-13T15:02:47.147Z,83.78
2022-10-13T15:05:06.074Z,84.42
2022-10-13T15:07:23.173Z,85.27
2022-10-13T15:09:53.011Z,86.52
2022-10-13T15:12:20.097Z,87.22
2022-10-13T15:14:37.093Z,87.46
2022-10-13T15:16:54.021Z,87.36
2022-10-13T15:19:10.881Z,88.13
2022-10-13T15:21:27.838Z,88.42
2022-10-13T15:23:44.675Z,90.02
2022-10-13T15:26:01.577Z,91.02
2022-10-13T15:28:18.514Z,92.31
2022-10-13T15:30:35.523Z,92.12
2022-10-13T15:32:52.456Z,93.50
2022-10-13T15:35:09.312Z,93.24
2022-10-13T15:37:26.157Z,93.79
2022-10-13T15:39:43.072Z,92.56
2022-10-13T15:41:59.976Z,93.80
2022-10-13T15:44:16.804Z,93.26
2022-10-13T15:46:33.761Z,92.83
2022-10-13T15:48:50.677Z,93.09
2022-10-13T15:51:10.569Z,91.94
2022-10-13T15:53:27.539Z,92.94
2022-10-13T15:55:44.440Z,91.11
2022-10-13T15:58:01.294Z,92.81
2022-10-13T16:00:18.225Z,93.24
2022-10-13T16:02:35.229Z,92.02
2022-10-13T16:04:52.162Z,92.50
2022-10-13T16:07:09.034Z,94.51
2022-10-13T16:09:25.902Z,94.42
2022-10-13T16:11:42.794Z,93.27
2022-10-13T16:13:59.680Z,93.08
2022-10-13T16:16:16.588Z,93.83
2022-10-13T16:18:33.529Z,94.06
2022-10-13T16:20:50.620Z,92.87
2022-10-13T16:23:07.538Z,93.92
2022-10-13T16:25:24.490Z,94.40
2022-10-13T16:27:44.350Z,93.83
2022-10-13T16:30:01.573Z,94.17
2022-10-13T16:32:18.683Z,93.34
2022-10-13T16:34:35.882Z,94.58
2022-10-13T16:36:52.743Z,93.79
2022-10-13T16:39:09.604Z,95.50
2022-10-13T16:41:26.563Z,93.49
2022-10-13T16:43:43.473Z,93.88
2022-10-13T16:46:00.591Z,96.11
2022-10-13T16:48:17.593Z,95.84
2022-10-13T16:50:34.542Z,95.42
2022-10-13T16:52:51.416Z,95.75
2022-10-13T16:55:08.314Z,96.18
2022-10-13T16:57:25.166Z,95.13
2022-10-13T16:59:42.031Z,94.55
2022-10-13T17:01:59.510Z,95.21
2022-10-13T17:04:21.876Z,95.10
2022-10-13T17:06:39.107Z,97.11
2022-10-13T17:08:56.015Z,96.02
2022-10-13T17:11:12.961Z,97.04
2022-10-13T17:13:29.863Z,97.29
2022-10-13T17:15:46.782Z,96.86
2022-10-13T17:18:03.612Z,96.94
2022-10-13T17:20:20.517Z,96.04
2022-10-13T17:22:37.582Z,95.58
2022-10-13T17:24:54.611Z,97.77
2022-10-13T17:27:11.493Z,95.79
2022-10-13T17:29:28.380Z,96.15
2022-10-13T17:31:45.294Z,96.15
2022-10-13T17:34:02.155Z,97.18
2022-10-13T17:36:19.024Z,97.83
2022-10-13T17:38:35.935Z,96.58
2022-10-13T17:40:56.090Z,98.35
2022-10-13T17:43:15.710Z,96.34
2022-10-13T17:45:32.599Z,96.74
2022-10-13T17:47:49.513Z,97.20
2022-10-13T17:50:06.369Z,96.16
2022-10-13T17:52:23.264Z,96.95
2022-10-13T17:54:40.112Z,97.53
2022-10-13T17:56:57.065Z,97.06
2022-10-13T17:59:13.930Z,96.08
2022-10-13T18:01:30.831Z,96.81
2022-10-13T18:03:47.785Z,96.13
2022-10-13T18:06:04.803Z,97.24
2022-10-13T18:08:21.842Z,97.40
2022-10-13T18:11:03.536Z,96.12
2022-10-13T18:13:15.672Z,97.79
2022-10-13T18:15:32.556Z,97.14
2022-10-13T18:17:49.469Z,96.43
2022-10-13T18:20:06.343Z,97.14
2022-10-13T18:22:23.233Z,97.38
2022-10-13T18:24:40.116Z,98.12
2022-10-13T18:26:56.994Z,98.37
2022-10-13T18:29:13.911Z,97.56
2022-10-13T18:31:30.752Z,98.32
2022-10-13T18:33:47.598Z,97.83
2022-10-13T18:36:04.485Z,97.07
2022-10-13T18:38:21.338Z,96.37
2022-10-13T18:40:38.195Z,97.33
2022-10-13T18:42:55.089Z,97.15
2022-10-13T18:45:11.943Z,96.64
2022-10-13T18:47:28.821Z,98.19
2022-10-13T18:49:45.686Z,96.66
2022-10-13T18:52:02.569Z,98.20
2022-10-13T18:54:19.434Z,98.63
2022-10-13T18:56:36.273Z,98.51
2022-10-13T18:58:58.442Z,97.35
2022-10-13T19:01:16.314Z,98.49
2022-10-13T19:03:33.243Z,97.06
2022-10-13T19:05:50.117Z,98.77
2022-10-13T19:08:07.030Z,97.38
2022-10-13T19:10:23.914Z,98.57
2022-10-13T19:12:40.765Z,98.17
2022-10-13T19:14:57.630Z,98.20
2022-10-13T19:17:14.499Z,96.89
2022-10-13T19:19:31.403Z,98.02
2022-10-13T19:21:48.251Z,97.63
2022-10-13T19:24:05.134Z,98.17
2022-10-13T19:26:21.957Z,97.58
2022-10-13T19:28:38.862Z,98.44
2022-10-13T19:30:55.763Z,98.31
2022-10-13T19:33:12.664Z,97.58
2022-10-13T19:35:29.532Z,98.09
2022-10-13T19:37:46.421Z,98.36
2022-10-13T19:40:03.288Z,99.27
2022-10-13T19:42:20.204Z,99.29
2022-10-13T19:44:37.086Z,99.56
2022-10-13T19:46:53.979Z,99.58
2022-10-13T19:49:10.895Z,99.45
2022-10-13T19:51:27.744Z,99.31
2022-10-13T19:53:44.621Z,99.13
2022-10-13T19:56:01.518Z,99.00
2022-10-13T19:58:18.356Z,99.74
2022-10-13T20:00:35.382Z,99.67
2022-10-13T20:02:52.299Z,98.67
2022-10-13T20:05:09.165Z,99.83
2022-10-13T20:07:26.004Z,99.50
2022-10-13T20:09:42.926Z,99.75
2022-10-13T20:11:59.787Z,99.03
2022-10-13T20:14:16.699Z,99.82
2022-10-13T20:16:33.548Z,99.22
2022-10-13T20:18:50.407Z,99.72
2022-10-13T20:21:07.302Z,99.17
2022-10-13T20:23:24.191Z,99.18
2022-10-13T20:25:41.034Z,98.27
2022-10-13T20:27:57.910Z,99.30
2022-10-13T20:30:14.772Z,99.23
2022-10-13T20:32:31.594Z,99.75
2022-10-13T20:34:48.435Z,99.70
2022-10-13T20:37:05.318Z,99.89
2022-10-13T20:39:22.188Z,99.00
2022-10-13T20:41:39.048Z,98.94
2022-10-13T20:43:55.914Z,100.00
2022-10-13T20:46:12.770Z,99.95
2022-10-13T20:48:45.297Z,99.74
2022-10-13T20:51:06.451Z,100.00
2022-10-13T20:53:23.272Z,99.63
2022-10-13T20:55:41.987Z,99.95
2022-10-13T20:57:59.003Z,99.59
2022-10-13T21:00:15.847Z,99.54
2022-10-13T21:02:32.768Z,100.00
2022-10-13T21:04:49.679Z,99.67
2022-10-13T21:07:06.557Z,98.97
2022-10-13T21:09:23.669Z,98.73
2022-10-13T21:11:40.779Z,99.02
2022-10-13T21:13:57.600Z,98.61
2022-10-13T21:16:14.498Z,98.31
2022-10-13T21:18:31.357Z,97.99
2022-10-13T21:20:48.343Z,99.12
2022-10-13T21:23:05.252Z,98.02
2022-10-13T21:25:22.196Z,99.33
2022-10-13T21:27:39.113Z,99.53
2022-10-13T21:29:55.995Z,99.32
2022-10-13T21:32:13.005Z,99.28
2022-10-13T21:34:30.199Z,98.11
2022-10-13T21:36:47.094Z,98.37
2022-10-13T21:39:04.108Z,99.44
2022-10-13T21:41:21.057Z,98.70
2022-10-13T21:43:38.029Z,98.41
2022-10-13T21:45:55.109Z,99.51
2022-10-13T21:48:11.994Z,98.17
2022-10-13T21:50:28.977Z,98.36
2022-10-13T21:52:45.918Z,97.92
2022-10-13T21:55:03.022Z,98.00
2022-10-13T21:57:20.259Z,98.27
2022-10-13T21:59:39.870Z,98.38
2022-10-13T22:01:56.913Z,97.61
2022-10-13T22:04:13.801Z,98.11
2022-10-13T22:06:30.797Z,98.98
2022-10-13T22:08:47.712Z,97.91
2022-10-13T22:11:07.704Z,97.84
2022-10-13T22:13:24.637Z,99.06
2022-10-13T22:15:41.555Z,98.94
2022-10-13T22:17:58.504Z,98.56
2022-10-13T22:20:15.447Z,99.17
2022-10-13T22:22:32.653Z,98.93
2022-10-13T22:24:49.567Z,98.18
2022-10-13T22:27:06.543Z,98.57
2022-10-13T22:29:23.499Z,98.38
2022-10-13T22:31:40.394Z,98.06
2022-10-13T22:33:57.351Z,98.20
2022-10-13T22:36:14.369Z,99.00
2022-10-13T22:38:31.326Z,98.34
2022-10-13T22:40:48.329Z,98.55
2022-10-13T22:43:05.312Z,98.57
2022-10-13T22:45:22.272Z,98.72
2022-10-13T22:47:39.186Z,98.40
2022-10-13T22:49:56.198Z,99.06
2022-10-13T22:52:13.623Z,98.68
2022-10-13T22:54:30.581Z,98.23
2022-10-13T22:56:47.605Z,98.20
2022-10-13T22:59:04.502Z,97.99
2022-10-13T23:01:21.863Z,98.02
2022-10-13T23:03:38.791Z,98.11
2022-10-13T23:05:55.726Z,99.23
2022-10-13T23:08:12.553Z,98.31
2022-10-13T23:10:29.482Z,98.96
2022-10-13T23:12:46.385Z,98.68
2022-10-13T23:15:03.448Z,99.17
2022-10-13T23:17:20.746Z,99.39
2022-10-13T23:19:37.786Z,98.07
2022-10-13T23:21:54.706Z,98.63
2022-10-13T23:24:11.633Z,98.13
2022-10-13T23:26:28.616Z,98.36
2022-10-13T23:28:45.622Z,98.43
2022-10-13T23:31:02.589Z,98.92
2022-10-13T23:33:19.573Z,98.35
2022-10-13T23:35:36.689Z,99.29
2022-10-13T23:37:53.621Z,98.04
2022-10-13T23:40:10.500Z,99.38
2022-10-13T23:42:27.380Z,99.24
2022-10-13T23:44:44.347Z,98.16
2022-10-13T23:47:01.246Z,98.20
2022-10-13T23:49:18.094Z,98.05
2022-10-13T23:51:34.994Z,98.29
2022-10-13T23:53:51.918Z,98.03
2022-10-13T23:56:08.837Z,97.91
2022-10-13T23:58:25.730Z,98.06
